Current | Forecast
Updated: 8:30 AM CEST on May 25, 2017
Observed at Valencia Aeropuerto, Spain
Temperature 19°C
Humidity 60%
Dew Point 11°C
Wind North at 0 km/h
Pressure 1016 hPa (Steady)
Conditions Clear
Visibility -
UV N/A
Clouds
Yesterday's Maximum 28°C
Yesterday's Minimum 15°C approx.
Yesterday's Cooling Degree Days 6 approx.
Sunrise6:38 AM CEST
Sunset9:18 PM CEST
Moon Rise6:37 AM CEST
Moon Set8:55 PM CEST
Moon PhaseMoon Phase
Waning Crescent
Raw METARMETAR LEVC 250630Z 00000KT CAVOK 19/11 Q1016 NOSIG


Monday
. High: 87° F.
Tuesday
. High: 80° F.
Wednesday
. High: 78° F.
Thursday
. High: 77° F.
Friday
. High: 75° F.
Saturday
. High: 84° F.
Sunday
. High: 84° F.
Monday
. High: 80° F.

Click here for Marine Information
Scientific forecaster discussion (NWS)

Units: English | Metric

Find the Weather for any City, State or Zipcode, or Country:

U.S. State List | Severe Weather | Tropical Storms | Ski Conditions
United States | Canada | Central America | South America | Asia | Europe | Australia | Africa | Islands

Weather Underground

© Copyright 2017
The Weather Company, LLC